sensor_id;sensor_type;location;lat;lon;timestamp;temperature;humidity
77523;SHT31;66637;-29.628;-49.938;2024-02-15T00:01:11;22.36;86.58
77523;SHT31;66637;-29.628;-49.938;2024-02-15T00:03:42;22.31;86.72
77523;SHT31;66637;-29.628;-49.938;2024-02-15T00:06:12;22.23;86.89
77523;SHT31;66637;-29.628;-49.938;2024-02-15T00:08:43;22.16;86.94
77523;SHT31;66637;-29.628;-49.938;2024-02-15T00:11:14;22.21;87.12
77523;SHT31;66637;-29.628;-49.938;2024-02-15T00:13:46;22.22;87.02
77523;SHT31;66637;-29.628;-49.938;2024-02-15T00:16:16;22.21;87.42
77523;SHT31;66637;-29.628;-49.938;2024-02-15T00:18:47;22.18;87.30
77523;SHT31;66637;-29.628;-49.938;2024-02-15T00:21:20;22.04;87.72
77523;SHT31;66637;-29.628;-49.938;2024-02-15T00:23:53;22.01;87.32
77523;SHT31;66637;-29.628;-49.938;2024-02-15T00:26:26;21.95;86.99
77523;SHT31;66637;-29.628;-49.938;2024-02-15T00:29:10;21.98;87.46
77523;SHT31;66637;-29.628;-49.938;2024-02-15T00:31:44;21.98;87.66
77523;SHT31;66637;-29.628;-49.938;2024-02-15T00:34:18;22.05;87.17
77523;SHT31;66637;-29.628;-49.938;2024-02-15T00:36:51;22.09;87.35
77523;SHT31;66637;-29.628;-49.938;2024-02-15T00:39:22;22.13;87.76
77523;SHT31;66637;-29.628;-49.938;2024-02-15T00:41:54;22.25;87.42
77523;SHT31;66637;-29.628;-49.938;2024-02-15T00:44:30;22.29;87.47
77523;SHT31;66637;-29.628;-49.938;2024-02-15T00:47:00;22.39;87.48
77523;SHT31;66637;-29.628;-49.938;2024-02-15T00:49:30;22.42;87.30
77523;SHT31;66637;-29.628;-49.938;2024-02-15T00:52:19;22.48;87.12
77523;SHT31;66637;-29.628;-49.938;2024-02-15T00:54:52;22.48;87.43
77523;SHT31;66637;-29.628;-49.938;2024-02-15T00:57:31;22.43;87.49
77523;SHT31;66637;-29.628;-49.938;2024-02-15T01:00:04;22.48;87.44
77523;SHT31;66637;-29.628;-49.938;2024-02-15T01:02:36;22.45;86.95
77523;SHT31;66637;-29.628;-49.938;2024-02-15T01:05:06;22.46;86.92
77523;SHT31;66637;-29.628;-49.938;2024-02-15T01:07:39;22.46;87.36
77523;SHT31;66637;-29.628;-49.938;2024-02-15T01:10:10;22.46;86.89
77523;SHT31;66637;-29.628;-49.938;2024-02-15T01:12:48;22.46;87.02
77523;SHT31;66637;-29.628;-49.938;2024-02-15T01:15:45;22.56;87.32
77523;SHT31;66637;-29.628;-49.938;2024-02-15T01:18:16;22.52;87.41
77523;SHT31;66637;-29.628;-49.938;2024-02-15T01:20:50;22.49;87.52
77523;SHT31;66637;-29.628;-49.938;2024-02-15T01:23:29;22.55;87.24
77523;SHT31;66637;-29.628;-49.938;2024-02-15T01:26:01;22.55;87.13
77523;SHT31;66637;-29.628;-49.938;2024-02-15T01:28:34;22.53;87.09
77523;SHT31;66637;-29.628;-49.938;2024-02-15T01:31:14;22.51;87.17
77523;SHT31;66637;-29.628;-49.938;2024-02-15T01:33:51;22.52;87.29
77523;SHT31;66637;-29.628;-49.938;2024-02-15T01:36:26;22.53;87.33
77523;SHT31;66637;-29.628;-49.938;2024-02-15T01:39:04;22.49;87.75
77523;SHT31;66637;-29.628;-49.938;2024-02-15T01:41:49;22.48;88.15
77523;SHT31;66637;-29.628;-49.938;2024-02-15T01:44:34;22.49;88.01
77523;SHT31;66637;-29.628;-49.938;2024-02-15T01:47:17;22.33;87.27
77523;SHT31;66637;-29.628;-49.938;2024-02-15T01:49:50;22.29;87.17
77523;SHT31;66637;-29.628;-49.938;2024-02-15T01:52:28;22.26;87.36
77523;SHT31;66637;-29.628;-49.938;2024-02-15T01:55:00;22.33;87.10
77523;SHT31;66637;-29.628;-49.938;2024-02-15T01:57:39;22.25;87.06
77523;SHT31;66637;-29.628;-49.938;2024-02-15T02:00:13;22.16;86.48
77523;SHT31;66637;-29.628;-49.938;2024-02-15T02:03:05;22.19;86.80
77523;SHT31;66637;-29.628;-49.938;2024-02-15T02:05:39;22.16;86.91
77523;SHT31;66637;-29.628;-49.938;2024-02-15T02:08:16;22.23;87.02
77523;SHT31;66637;-29.628;-49.938;2024-02-15T02:10:53;22.15;86.63
77523;SHT31;66637;-29.628;-49.938;2024-02-15T02:13:26;22.15;86.11
77523;SHT31;66637;-29.628;-49.938;2024-02-15T02:16:01;22.11;86.44
77523;SHT31;66637;-29.628;-49.938;2024-02-15T02:18:33;22.16;86.93
77523;SHT31;66637;-29.628;-49.938;2024-02-15T02:21:17;22.23;87.17
77523;SHT31;66637;-29.628;-49.938;2024-02-15T02:24:02;22.28;87.26
77523;SHT31;66637;-29.628;-49.938;2024-02-15T02:26:38;22.25;86.98
77523;SHT31;66637;-29.628;-49.938;2024-02-15T02:29:10;22.22;86.83
77523;SHT31;66637;-29.628;-49.938;2024-02-15T02:31:41;22.16;87.27
77523;SHT31;66637;-29.628;-49.938;2024-02-15T02:34:12;22.21;87.32
77523;SHT31;66637;-29.628;-49.938;2024-02-15T02:36:49;22.19;87.40
77523;SHT31;66637;-29.628;-49.938;2024-02-15T02:39:21;22.18;87.02
77523;SHT31;66637;-29.628;-49.938;2024-02-15T02:41:54;22.15;87.00
77523;SHT31;66637;-29.628;-49.938;2024-02-15T02:44:40;22.15;87.60
77523;SHT31;66637;-29.628;-49.938;2024-02-15T02:47:15;22.12;87.53
77523;SHT31;66637;-29.628;-49.938;2024-02-15T02:49:51;22.09;87.20
77523;SHT31;66637;-29.628;-49.938;2024-02-15T02:52:22;22.06;87.14
77523;SHT31;66637;-29.628;-49.938;2024-02-15T02:54:57;21.98;87.34
77523;SHT31;66637;-29.628;-49.938;2024-02-15T02:57:37;21.98;87.93
77523;SHT31;66637;-29.628;-49.938;2024-02-15T03:00:12;21.95;87.51
77523;SHT31;66637;-29.628;-49.938;2024-02-15T03:02:47;21.95;87.21
77523;SHT31;66637;-29.628;-49.938;2024-02-15T03:05:18;21.94;87.29
77523;SHT31;66637;-29.628;-49.938;2024-02-15T03:07:52;21.97;87.12
77523;SHT31;66637;-29.628;-49.938;2024-02-15T03:10:34;21.97;86.77
77523;SHT31;66637;-29.628;-49.938;2024-02-15T03:13:06;22.02;86.76
77523;SHT31;66637;-29.628;-49.938;2024-02-15T03:15:39;22.00;86.99
77523;SHT31;66637;-29.628;-49.938;2024-02-15T03:18:14;21.95;87.42
77523;SHT31;66637;-29.628;-49.938;2024-02-15T03:20:46;21.92;87.60
77523;SHT31;66637;-29.628;-49.938;2024-02-15T03:23:21;21.92;87.64
77523;SHT31;66637;-29.628;-49.938;2024-02-15T03:25:52;21.98;87.16
77523;SHT31;66637;-29.628;-49.938;2024-02-15T03:28:23;21.91;86.73
77523;SHT31;66637;-29.628;-49.938;2024-02-15T03:30:55;21.98;86.50
77523;SHT31;66637;-29.628;-49.938;2024-02-15T03:33:26;22.01;86.50
77523;SHT31;66637;-29.628;-49.938;2024-02-15T03:36:08;22.02;85.76
77523;SHT31;66637;-29.628;-49.938;2024-02-15T03:38:43;22.05;85.68
77523;SHT31;66637;-29.628;-49.938;2024-02-15T03:41:16;22.06;85.54
77523;SHT31;66637;-29.628;-49.938;2024-02-15T03:43:48;22.11;85.51
77523;SHT31;66637;-29.628;-49.938;2024-02-15T03:46:18;22.12;85.95
77523;SHT31;66637;-29.628;-49.938;2024-02-15T03:48:57;22.15;86.13
77523;SHT31;66637;-29.628;-49.938;2024-02-15T03:51:29;22.11;86.20
77523;SHT31;66637;-29.628;-49.938;2024-02-15T03:54:01;22.15;86.20
77523;SHT31;66637;-29.628;-49.938;2024-02-15T03:56:34;22.09;86.03
77523;SHT31;66637;-29.628;-49.938;2024-02-15T03:59:05;22.08;86.12
77523;SHT31;66637;-29.628;-49.938;2024-02-15T04:01:37;22.06;86.05
77523;SHT31;66637;-29.628;-49.938;2024-02-15T04:04:07;22.02;86.33
77523;SHT31;66637;-29.628;-49.938;2024-02-15T04:06:39;22.09;86.35
77523;SHT31;66637;-29.628;-49.938;2024-02-15T04:09:13;22.04;86.43
77523;SHT31;66637;-29.628;-49.938;2024-02-15T04:11:46;22.01;86.61
77523;SHT31;66637;-29.628;-49.938;2024-02-15T04:14:20;21.98;86.40
77523;SHT31;66637;-29.628;-49.938;2024-02-15T04:16:53;21.94;86.64
77523;SHT31;66637;-29.628;-49.938;2024-02-15T04:19:23;21.98;86.62
77523;SHT31;66637;-29.628;-49.938;2024-02-15T04:21:54;22.00;87.16
77523;SHT31;66637;-29.628;-49.938;2024-02-15T04:24:31;22.01;87.33
77523;SHT31;66637;-29.628;-49.938;2024-02-15T04:27:01;22.02;87.33
77523;SHT31;66637;-29.628;-49.938;2024-02-15T04:29:32;22.05;87.73
77523;SHT31;66637;-29.628;-49.938;2024-02-15T04:32:03;22.08;87.45
77523;SHT31;66637;-29.628;-49.938;2024-02-15T04:34:34;22.04;87.63
77523;SHT31;66637;-29.628;-49.938;2024-02-15T04:37:05;22.04;87.62
77523;SHT31;66637;-29.628;-49.938;2024-02-15T04:39:39;22.02;87.69
77523;SHT31;66637;-29.628;-49.938;2024-02-15T04:42:09;22.05;88.09
77523;SHT31;66637;-29.628;-49.938;2024-02-15T04:44:41;22.05;88.16
77523;SHT31;66637;-29.628;-49.938;2024-02-15T04:47:12;22.05;88.14
77523;SHT31;66637;-29.628;-49.938;2024-02-15T04:49:44;22.05;87.85
77523;SHT31;66637;-29.628;-49.938;2024-02-15T04:52:14;22.05;88.01
77523;SHT31;66637;-29.628;-49.938;2024-02-15T04:54:45;22.06;87.59
77523;SHT31;66637;-29.628;-49.938;2024-02-15T04:57:17;22.09;87.79
77523;SHT31;66637;-29.628;-49.938;2024-02-15T04:59:47;22.11;87.83
77523;SHT31;66637;-29.628;-49.938;2024-02-15T05:02:20;22.06;87.72
77523;SHT31;66637;-29.628;-49.938;2024-02-15T05:04:53;22.06;87.26
77523;SHT31;66637;-29.628;-49.938;2024-02-15T05:07:27;22.06;86.99
77523;SHT31;66637;-29.628;-49.938;2024-02-15T05:10:00;22.02;86.90
77523;SHT31;66637;-29.628;-49.938;2024-02-15T05:12:32;22.04;87.05
77523;SHT31;66637;-29.628;-49.938;2024-02-15T05:15:06;22.06;87.12
77523;SHT31;66637;-29.628;-49.938;2024-02-15T05:17:41;22.18;86.93
77523;SHT31;66637;-29.628;-49.938;2024-02-15T05:20:12;22.11;87.22
77523;SHT31;66637;-29.628;-49.938;2024-02-15T05:22:44;22.09;87.24
77523;SHT31;66637;-29.628;-49.938;2024-02-15T05:25:22;22.08;87.36
77523;SHT31;66637;-29.628;-49.938;2024-02-15T05:27:54;22.18;87.13
77523;SHT31;66637;-29.628;-49.938;2024-02-15T05:30:25;22.08;87.52
77523;SHT31;66637;-29.628;-49.938;2024-02-15T05:32:57;22.06;87.62
77523;SHT31;66637;-29.628;-49.938;2024-02-15T05:35:27;21.97;87.93
77523;SHT31;66637;-29.628;-49.938;2024-02-15T05:37:58;21.95;88.07
77523;SHT31;66637;-29.628;-49.938;2024-02-15T05:40:28;21.94;88.21
77523;SHT31;66637;-29.628;-49.938;2024-02-15T05:43:00;21.95;88.39
77523;SHT31;66637;-29.628;-49.938;2024-02-15T05:45:32;21.94;87.96
77523;SHT31;66637;-29.628;-49.938;2024-02-15T05:48:07;21.94;88.19
77523;SHT31;66637;-29.628;-49.938;2024-02-15T05:50:38;21.98;88.29
77523;SHT31;66637;-29.628;-49.938;2024-02-15T05:53:10;21.95;88.53
77523;SHT31;66637;-29.628;-49.938;2024-02-15T05:55:42;22.00;88.53
77523;SHT31;66637;-29.628;-49.938;2024-02-15T05:58:14;22.01;88.54
77523;SHT31;66637;-29.628;-49.938;2024-02-15T06:00:45;22.06;88.44
77523;SHT31;66637;-29.628;-49.938;2024-02-15T06:03:20;22.06;88.55
77523;SHT31;66637;-29.628;-49.938;2024-02-15T06:05:57;22.08;88.34
77523;SHT31;66637;-29.628;-49.938;2024-02-15T06:08:32;22.21;88.21
77523;SHT31;66637;-29.628;-49.938;2024-02-15T06:11:03;22.11;88.65
77523;SHT31;66637;-29.628;-49.938;2024-02-15T06:13:35;22.12;88.68
77523;SHT31;66637;-29.628;-49.938;2024-02-15T06:16:06;22.13;88.74
77523;SHT31;66637;-29.628;-49.938;2024-02-15T06:18:40;22.13;88.69
77523;SHT31;66637;-29.628;-49.938;2024-02-15T06:21:13;22.13;88.87
77523;SHT31;66637;-29.628;-49.938;2024-02-15T06:23:43;22.13;88.91
77523;SHT31;66637;-29.628;-49.938;2024-02-15T06:26:13;22.11;89.07
77523;SHT31;66637;-29.628;-49.938;2024-02-15T06:28:44;22.04;88.89
77523;SHT31;66637;-29.628;-49.938;2024-02-15T06:31:33;22.05;88.70
77523;SHT31;66637;-29.628;-49.938;2024-02-15T06:34:23;22.08;88.87
77523;SHT31;66637;-29.628;-49.938;2024-02-15T06:37:37;22.15;89.17
77523;SHT31;66637;-29.628;-49.938;2024-02-15T06:40:26;22.12;89.39
77523;SHT31;66637;-29.628;-49.938;2024-02-15T06:42:58;22.15;89.25
77523;SHT31;66637;-29.628;-49.938;2024-02-15T06:45:29;22.15;89.05
77523;SHT31;66637;-29.628;-49.938;2024-02-15T06:48:02;22.13;89.06
77523;SHT31;66637;-29.628;-49.938;2024-02-15T06:50:34;22.09;88.69
77523;SHT31;66637;-29.628;-49.938;2024-02-15T06:53:08;22.08;88.56
77523;SHT31;66637;-29.628;-49.938;2024-02-15T06:55:40;22.06;88.55
77523;SHT31;66637;-29.628;-49.938;2024-02-15T06:58:10;22.02;88.33
77523;SHT31;66637;-29.628;-49.938;2024-02-15T07:00:45;21.94;88.09
77523;SHT31;66637;-29.628;-49.938;2024-02-15T07:03:18;21.91;87.95
77523;SHT31;66637;-29.628;-49.938;2024-02-15T07:05:50;21.88;88.01
77523;SHT31;66637;-29.628;-49.938;2024-02-15T07:08:22;21.87;88.09
77523;SHT31;66637;-29.628;-49.938;2024-02-15T07:10:54;21.81;87.58
77523;SHT31;66637;-29.628;-49.938;2024-02-15T07:13:25;21.74;87.83
77523;SHT31;66637;-29.628;-49.938;2024-02-15T07:15:57;21.71;87.65
77523;SHT31;66637;-29.628;-49.938;2024-02-15T07:18:27;21.73;87.87
77523;SHT31;66637;-29.628;-49.938;2024-02-15T07:20:59;21.68;88.02
77523;SHT31;66637;-29.628;-49.938;2024-02-15T07:23:31;21.67;88.21
77523;SHT31;66637;-29.628;-49.938;2024-02-15T07:26:06;21.62;88.07
77523;SHT31;66637;-29.628;-49.938;2024-02-15T07:28:39;21.58;87.93
77523;SHT31;66637;-29.628;-49.938;2024-02-15T07:31:10;21.65;88.33
77523;SHT31;66637;-29.628;-49.938;2024-02-15T07:33:41;21.62;88.31
77523;SHT31;66637;-29.628;-49.938;2024-02-15T07:36:17;21.55;88.30
77523;SHT31;66637;-29.628;-49.938;2024-02-15T07:38:52;21.55;88.58
77523;SHT31;66637;-29.628;-49.938;2024-02-15T07:41:31;21.55;88.75
77523;SHT31;66637;-29.628;-49.938;2024-02-15T07:44:03;21.64;89.07
77523;SHT31;66637;-29.628;-49.938;2024-02-15T07:46:36;21.57;88.68
77523;SHT31;66637;-29.628;-49.938;2024-02-15T07:49:10;21.50;88.58
77523;SHT31;66637;-29.628;-49.938;2024-02-15T07:51:42;21.46;88.59
77523;SHT31;66637;-29.628;-49.938;2024-02-15T07:54:13;21.51;88.69
77523;SHT31;66637;-29.628;-49.938;2024-02-15T07:56:45;21.53;88.91
77523;SHT31;66637;-29.628;-49.938;2024-02-15T07:59:19;21.54;89.11
77523;SHT31;66637;-29.628;-49.938;2024-02-15T08:01:50;21.50;89.11
77523;SHT31;66637;-29.628;-49.938;2024-02-15T08:04:22;21.47;89.03
77523;SHT31;66637;-29.628;-49.938;2024-02-15T08:06:55;21.47;89.08
77523;SHT31;66637;-29.628;-49.938;2024-02-15T08:09:25;21.51;89.01
77523;SHT31;66637;-29.628;-49.938;2024-02-15T08:11:56;21.51;88.98
77523;SHT31;66637;-29.628;-49.938;2024-02-15T08:14:28;21.48;89.27
77523;SHT31;66637;-29.628;-49.938;2024-02-15T08:17:00;21.54;89.31
77523;SHT31;66637;-29.628;-49.938;2024-02-15T08:19:33;21.54;89.42
77523;SHT31;66637;-29.628;-49.938;2024-02-15T08:22:06;21.60;89.65
77523;SHT31;66637;-29.628;-49.938;2024-02-15T08:24:37;21.58;89.46
77523;SHT31;66637;-29.628;-49.938;2024-02-15T08:27:09;21.55;89.65
77523;SHT31;66637;-29.628;-49.938;2024-02-15T08:29:41;21.62;89.67
77523;SHT31;66637;-29.628;-49.938;2024-02-15T08:32:13;21.65;89.91
77523;SHT31;66637;-29.628;-49.938;2024-02-15T08:34:44;21.71;89.91
77523;SHT31;66637;-29.628;-49.938;2024-02-15T08:37:18;21.71;89.94
77523;SHT31;66637;-29.628;-49.938;2024-02-15T08:39:50;21.75;90.05
77523;SHT31;66637;-29.628;-49.938;2024-02-15T08:42:23;21.75;89.92
77523;SHT31;66637;-29.628;-49.938;2024-02-15T08:44:54;21.78;89.55
77523;SHT31;66637;-29.628;-49.938;2024-02-15T08:47:25;21.78;89.86
77523;SHT31;66637;-29.628;-49.938;2024-02-15T08:49:57;21.74;89.55
77523;SHT31;66637;-29.628;-49.938;2024-02-15T08:52:29;21.74;89.75
77523;SHT31;66637;-29.628;-49.938;2024-02-15T08:54:59;21.77;89.72
77523;SHT31;66637;-29.628;-49.938;2024-02-15T08:57:30;21.80;89.63
77523;SHT31;66637;-29.628;-49.938;2024-02-15T09:00:04;21.78;89.57
77523;SHT31;66637;-29.628;-49.938;2024-02-15T09:02:48;21.77;89.86
77523;SHT31;66637;-29.628;-49.938;2024-02-15T09:05:20;21.78;89.77
77523;SHT31;66637;-29.628;-49.938;2024-02-15T09:07:53;21.80;89.54
77523;SHT31;66637;-29.628;-49.938;2024-02-15T09:10:24;21.82;89.68
77523;SHT31;66637;-29.628;-49.938;2024-02-15T09:12:56;21.78;89.80
77523;SHT31;66637;-29.628;-49.938;2024-02-15T09:15:26;21.85;89.89
77523;SHT31;66637;-29.628;-49.938;2024-02-15T09:17:59;21.85;89.89
77523;SHT31;66637;-29.628;-49.938;2024-02-15T09:20:30;21.87;89.91
77523;SHT31;66637;-29.628;-49.938;2024-02-15T09:23:02;21.85;89.82
77523;SHT31;66637;-29.628;-49.938;2024-02-15T09:25:38;21.88;89.82
77523;SHT31;66637;-29.628;-49.938;2024-02-15T09:28:11;21.90;89.83
77523;SHT31;66637;-29.628;-49.938;2024-02-15T09:30:41;21.90;89.84
77523;SHT31;66637;-29.628;-49.938;2024-02-15T09:33:11;21.94;89.85
77523;SHT31;66637;-29.628;-49.938;2024-02-15T09:35:42;21.97;89.58
77523;SHT31;66637;-29.628;-49.938;2024-02-15T09:38:14;21.97;89.59
77523;SHT31;66637;-29.628;-49.938;2024-02-15T09:40:51;21.98;89.62
77523;SHT31;66637;-29.628;-49.938;2024-02-15T09:43:22;22.05;89.63
77523;SHT31;66637;-29.628;-49.938;2024-02-15T09:45:57;22.05;89.57
77523;SHT31;66637;-29.628;-49.938;2024-02-15T09:48:37;22.06;89.73
77523;SHT31;66637;-29.628;-49.938;2024-02-15T09:51:11;22.06;89.86
77523;SHT31;66637;-29.628;-49.938;2024-02-15T09:53:44;22.02;90.02
77523;SHT31;66637;-29.628;-49.938;2024-02-15T09:56:16;22.02;89.90
77523;SHT31;66637;-29.628;-49.938;2024-02-15T09:58:51;22.04;89.52
77523;SHT31;66637;-29.628;-49.938;2024-02-15T10:01:23;22.04;89.42
77523;SHT31;66637;-29.628;-49.938;2024-02-15T10:03:55;22.04;89.30
77523;SHT31;66637;-29.628;-49.938;2024-02-15T10:06:29;22.06;89.40
77523;SHT31;66637;-29.628;-49.938;2024-02-15T10:09:25;22.13;89.39
77523;SHT31;66637;-29.628;-49.938;2024-02-15T10:12:01;22.16;89.19
77523;SHT31;66637;-29.628;-49.938;2024-02-15T10:14:32;22.15;89.06
77523;SHT31;66637;-29.628;-49.938;2024-02-15T10:17:09;22.15;89.04
77523;SHT31;66637;-29.628;-49.938;2024-02-15T10:19:42;22.13;88.70
77523;SHT31;66637;-29.628;-49.938;2024-02-15T10:22:14;22.18;87.95
77523;SHT31;66637;-29.628;-49.938;2024-02-15T10:24:45;22.22;87.53
77523;SHT31;66637;-29.628;-49.938;2024-02-15T10:27:23;22.28;87.65
77523;SHT31;66637;-29.628;-49.938;2024-02-15T10:30:14;22.38;87.71
77523;SHT31;66637;-29.628;-49.938;2024-02-15T10:32:46;22.41;87.40
77523;SHT31;66637;-29.628;-49.938;2024-02-15T10:35:20;22.49;87.49
77523;SHT31;66637;-29.628;-49.938;2024-02-15T10:37:52;22.57;87.00
77523;SHT31;66637;-29.628;-49.938;2024-02-15T10:40:27;22.69;87.09
77523;SHT31;66637;-29.628;-49.938;2024-02-15T10:42:58;22.89;87.28
77523;SHT31;66637;-29.628;-49.938;2024-02-15T10:45:36;23.04;86.67
77523;SHT31;66637;-29.628;-49.938;2024-02-15T10:48:10;23.14;86.36
77523;SHT31;66637;-29.628;-49.938;2024-02-15T10:50:44;23.21;86.22
77523;SHT31;66637;-29.628;-49.938;2024-02-15T10:56:15;23.92;85.62
77523;SHT31;66637;-29.628;-49.938;2024-02-15T10:59:02;24.56;84.39
77523;SHT31;66637;-29.628;-49.938;2024-02-15T11:01:38;25.42;82.17
77523;SHT31;66637;-29.628;-49.938;2024-02-15T11:04:14;25.03;80.73
77523;SHT31;66637;-29.628;-49.938;2024-02-15T11:06:47;24.90;81.13
77523;SHT31;66637;-29.628;-49.938;2024-02-15T11:09:21;24.90;81.01
77523;SHT31;66637;-29.628;-49.938;2024-02-15T11:11:52;25.82;79.37
77523;SHT31;66637;-29.628;-49.938;2024-02-15T11:14:27;25.49;79.80
77523;SHT31;66637;-29.628;-49.938;2024-02-15T11:17:02;25.43;79.92
77523;SHT31;66637;-29.628;-49.938;2024-02-15T11:22:12;25.49;79.88
77523;SHT31;66637;-29.628;-49.938;2024-02-15T11:24:52;25.69;79.66
77523;SHT31;66637;-29.628;-49.938;2024-02-15T11:27:31;26.64;78.28
77523;SHT31;66637;-29.628;-49.938;2024-02-15T11:30:03;27.11;76.64
77523;SHT31;66637;-29.628;-49.938;2024-02-15T11:32:47;27.39;75.29
77523;SHT31;66637;-29.628;-49.938;2024-02-15T11:35:21;27.72;74.72
77523;SHT31;66637;-29.628;-49.938;2024-02-15T11:37:57;27.97;74.25
77523;SHT31;66637;-29.628;-49.938;2024-02-15T11:46:20;27.90;73.56
77523;SHT31;66637;-29.628;-49.938;2024-02-15T11:48:52;27.99;74.01
77523;SHT31;66637;-29.628;-49.938;2024-02-15T11:51:34;28.61;73.15
77523;SHT31;66637;-29.628;-49.938;2024-02-15T11:54:12;28.58;72.99
77523;SHT31;66637;-29.628;-49.938;2024-02-15T11:56:54;28.40;72.64
77523;SHT31;66637;-29.628;-49.938;2024-02-15T11:59:44;28.03;73.08
77523;SHT31;66637;-29.628;-49.938;2024-02-15T12:02:45;27.80;73.61
77523;SHT31;66637;-29.628;-49.938;2024-02-15T12:05:35;27.86;74.73
77523;SHT31;66637;-29.628;-49.938;2024-02-15T12:08:24;27.78;74.36
77523;SHT31;66637;-29.628;-49.938;2024-02-15T12:11:14;27.14;75.59
77523;SHT31;66637;-29.628;-49.938;2024-02-15T12:14:03;27.41;74.30
77523;SHT31;66637;-29.628;-49.938;2024-02-15T12:17:07;27.43;75.16
77523;SHT31;66637;-29.628;-49.938;2024-02-15T12:20:01;27.18;74.77
77523;SHT31;66637;-29.628;-49.938;2024-02-15T12:22:44;27.27;74.46
77523;SHT31;66637;-29.628;-49.938;2024-02-15T12:25:17;27.38;75.30
77523;SHT31;66637;-29.628;-49.938;2024-02-15T12:28:03;27.29;75.20
77523;SHT31;66637;-29.628;-49.938;2024-02-15T12:30:37;27.27;75.23
77523;SHT31;66637;-29.628;-49.938;2024-02-15T12:33:13;27.05;75.17
77523;SHT31;66637;-29.628;-49.938;2024-02-15T12:35:50;27.32;75.28
77523;SHT31;66637;-29.628;-49.938;2024-02-15T12:38:21;27.41;74.96
77523;SHT31;66637;-29.628;-49.938;2024-02-15T12:40:54;27.24;73.86
77523;SHT31;66637;-29.628;-49.938;2024-02-15T12:43:28;27.34;74.72
77523;SHT31;66637;-29.628;-49.938;2024-02-15T12:46:09;27.60;74.75
77523;SHT31;66637;-29.628;-49.938;2024-02-15T12:48:50;27.34;73.33
77523;SHT31;66637;-29.628;-49.938;2024-02-15T12:51:24;27.45;74.96
77523;SHT31;66637;-29.628;-49.938;2024-02-15T12:54:09;27.97;73.58
77523;SHT31;66637;-29.628;-49.938;2024-02-15T12:56:43;28.23;71.19
77523;SHT31;66637;-29.628;-49.938;2024-02-15T12:59:17;28.16;71.57
77523;SHT31;66637;-29.628;-49.938;2024-02-15T13:01:51;28.30;71.92
77523;SHT31;66637;-29.628;-49.938;2024-02-15T13:04:24;28.92;70.04
77523;SHT31;66637;-29.628;-49.938;2024-02-15T13:06:55;28.78;70.14
77523;SHT31;66637;-29.628;-49.938;2024-02-15T13:09:27;28.25;71.13
77523;SHT31;66637;-29.628;-49.938;2024-02-15T13:12:00;28.61;70.87
77523;SHT31;66637;-29.628;-49.938;2024-02-15T13:14:33;28.87;71.12
77523;SHT31;66637;-29.628;-49.938;2024-02-15T13:17:05;28.68;70.92
77523;SHT31;66637;-29.628;-49.938;2024-02-15T13:19:37;28.67;70.78
77523;SHT31;66637;-29.628;-49.938;2024-02-15T13:22:08;28.50;71.44
77523;SHT31;66637;-29.628;-49.938;2024-02-15T13:24:39;28.30;71.66
77523;SHT31;66637;-29.628;-49.938;2024-02-15T13:27:09;28.33;71.67
77523;SHT31;66637;-29.628;-49.938;2024-02-15T13:29:43;28.62;71.58
77523;SHT31;66637;-29.628;-49.938;2024-02-15T13:32:15;28.50;71.90
77523;SHT31;66637;-29.628;-49.938;2024-02-15T13:34:51;28.94;70.93
77523;SHT31;66637;-29.628;-49.938;2024-02-15T13:37:24;28.24;72.61
77523;SHT31;66637;-29.628;-49.938;2024-02-15T13:39:55;28.03;73.23
77523;SHT31;66637;-29.628;-49.938;2024-02-15T13:42:26;28.06;73.39
77523;SHT31;66637;-29.628;-49.938;2024-02-15T13:44:57;28.31;72.04
77523;SHT31;66637;-29.628;-49.938;2024-02-15T13:47:28;28.33;72.05
77523;SHT31;66637;-29.628;-49.938;2024-02-15T13:50:01;28.92;70.03
77523;SHT31;66637;-29.628;-49.938;2024-02-15T13:52:34;28.92;70.64
77523;SHT31;66637;-29.628;-49.938;2024-02-15T13:55:05;28.68;71.24
77523;SHT31;66637;-29.628;-49.938;2024-02-15T13:57:35;28.61;71.58
77523;SHT31;66637;-29.628;-49.938;2024-02-15T14:00:09;28.72;71.41
77523;SHT31;66637;-29.628;-49.938;2024-02-15T14:02:44;29.11;70.43
77523;SHT31;66637;-29.628;-49.938;2024-02-15T14:05:14;28.61;71.83
77523;SHT31;66637;-29.628;-49.938;2024-02-15T14:07:50;28.48;71.24
77523;SHT31;66637;-29.628;-49.938;2024-02-15T14:10:25;28.39;71.97
77523;SHT31;66637;-29.628;-49.938;2024-02-15T14:12:56;28.47;71.04
77523;SHT31;66637;-29.628;-49.938;2024-02-15T14:15:33;28.45;72.04
77523;SHT31;66637;-29.628;-49.938;2024-02-15T14:18:12;28.41;72.30
77523;SHT31;66637;-29.628;-49.938;2024-02-15T14:20:46;28.47;72.38
77523;SHT31;66637;-29.628;-49.938;2024-02-15T14:23:21;28.67;71.38
77523;SHT31;66637;-29.628;-49.938;2024-02-15T14:25:53;29.04;70.11
77523;SHT31;66637;-29.628;-49.938;2024-02-15T14:28:34;29.40;69.27
77523;SHT31;66637;-29.628;-49.938;2024-02-15T14:31:07;29.12;69.34
77523;SHT31;66637;-29.628;-49.938;2024-02-15T14:33:56;28.69;71.20
77523;SHT31;66637;-29.628;-49.938;2024-02-15T14:36:29;28.51;71.70
77523;SHT31;66637;-29.628;-49.938;2024-02-15T14:39:03;28.64;71.13
77523;SHT31;66637;-29.628;-49.938;2024-02-15T14:41:35;28.60;70.86
77523;SHT31;66637;-29.628;-49.938;2024-02-15T14:44:17;28.39;72.06
77523;SHT31;66637;-29.628;-49.938;2024-02-15T14:46:48;28.39;72.70
77523;SHT31;66637;-29.628;-49.938;2024-02-15T14:49:20;28.28;71.67
77523;SHT31;66637;-29.628;-49.938;2024-02-15T14:51:52;28.20;71.18
77523;SHT31;66637;-29.628;-49.938;2024-02-15T14:54:23;28.00;72.98
77523;SHT31;66637;-29.628;-49.938;2024-02-15T14:56:57;27.67;72.82
77523;SHT31;66637;-29.628;-49.938;2024-02-15T14:59:35;27.50;73.58
77523;SHT31;66637;-29.628;-49.938;2024-02-15T15:02:08;27.29;72.65
77523;SHT31;66637;-29.628;-49.938;2024-02-15T15:04:50;27.63;72.94
77523;SHT31;66637;-29.628;-49.938;2024-02-15T15:07:40;27.83;72.55
77523;SHT31;66637;-29.628;-49.938;2024-02-15T15:10:34;28.09;71.39
77523;SHT31;66637;-29.628;-49.938;2024-02-15T15:13:24;29.09;69.01
77523;SHT31;66637;-29.628;-49.938;2024-02-15T15:15:56;29.02;70.57
77523;SHT31;66637;-29.628;-49.938;2024-02-15T15:18:26;28.43;70.99
77523;SHT31;66637;-29.628;-49.938;2024-02-15T15:21:02;28.04;71.86
77523;SHT31;66637;-29.628;-49.938;2024-02-15T15:23:32;27.96;72.45
77523;SHT31;66637;-29.628;-49.938;2024-02-15T15:26:05;27.73;73.03
77523;SHT31;66637;-29.628;-49.938;2024-02-15T15:28:41;27.86;72.66
77523;SHT31;66637;-29.628;-49.938;2024-02-15T15:31:11;27.83;73.01
77523;SHT31;66637;-29.628;-49.938;2024-02-15T15:33:43;27.88;72.87
77523;SHT31;66637;-29.628;-49.938;2024-02-15T15:36:15;27.82;73.87
77523;SHT31;66637;-29.628;-49.938;2024-02-15T15:38:48;27.50;73.48
77523;SHT31;66637;-29.628;-49.938;2024-02-15T15:41:19;27.42;73.68
77523;SHT31;66637;-29.628;-49.938;2024-02-15T15:43:52;27.48;73.21